sensor_id;sensor_type;location;lat;lon;timestamp;P1;durP1;ratioP1;P2;durP2;ratioP2
38465;SDS011;24244;51.950;5.902;2024-01-15T00:00:40;2.70;;;0.90;;
38465;SDS011;24244;51.950;5.902;2024-01-15T00:03:07;2.35;;;1.15;;
38465;SDS011;24244;51.950;5.902;2024-01-15T00:05:34;1.17;;;1.08;;
38465;SDS011;24244;51.950;5.902;2024-01-15T00:08:01;1.30;;;0.93;;
38465;SDS011;24244;51.950;5.902;2024-01-15T00:10:28;1.05;;;0.95;;
38465;SDS011;24244;51.950;5.902;2024-01-15T00:12:55;2.97;;;1.35;;
38465;SDS011;24244;51.950;5.902;2024-01-15T00:15:22;1.45;;;1.10;;
38465;SDS011;24244;51.950;5.902;2024-01-15T00:17:50;3.45;;;1.02;;
38465;SDS011;24244;51.950;5.902;2024-01-15T00:20:17;1.63;;;0.85;;
38465;SDS011;24244;51.950;5.902;2024-01-15T00:22:44;0.98;;;0.88;;
38465;SDS011;24244;51.950;5.902;2024-01-15T00:25:11;4.13;;;1.35;;
38465;SDS011;24244;51.950;5.902;2024-01-15T00:27:38;1.25;;;0.82;;
38465;SDS011;24244;51.950;5.902;2024-01-15T00:30:05;3.03;;;1.13;;
38465;SDS011;24244;51.950;5.902;2024-01-15T00:32:33;2.38;;;1.00;;
38465;SDS011;24244;51.950;5.902;2024-01-15T00:35:02;1.52;;;0.98;;
38465;SDS011;24244;51.950;5.902;2024-01-15T00:37:30;3.75;;;0.95;;
38465;SDS011;24244;51.950;5.902;2024-01-15T00:39:57;2.58;;;0.88;;
38465;SDS011;24244;51.950;5.902;2024-01-15T00:42:24;2.03;;;1.23;;
38465;SDS011;24244;51.950;5.902;2024-01-15T00:44:50;2.35;;;0.88;;
38465;SDS011;24244;51.950;5.902;2024-01-15T00:47:17;3.45;;;0.95;;
38465;SDS011;24244;51.950;5.902;2024-01-15T00:49:44;1.52;;;0.80;;
38465;SDS011;24244;51.950;5.902;2024-01-15T00:52:13;1.00;;;0.90;;
38465;SDS011;24244;51.950;5.902;2024-01-15T00:54:39;1.27;;;1.02;;
38465;SDS011;24244;51.950;5.902;2024-01-15T00:57:06;2.42;;;1.33;;
38465;SDS011;24244;51.950;5.902;2024-01-15T00:59:33;1.30;;;0.80;;
38465;SDS011;24244;51.950;5.902;2024-01-15T01:02:00;2.45;;;1.10;;
38465;SDS011;24244;51.950;5.902;2024-01-15T01:04:29;1.65;;;1.55;;
38465;SDS011;24244;51.950;5.902;2024-01-15T01:06:56;3.55;;;1.17;;
38465;SDS011;24244;51.950;5.902;2024-01-15T01:09:24;2.17;;;1.13;;
38465;SDS011;24244;51.950;5.902;2024-01-15T01:11:51;1.70;;;0.90;;
38465;SDS011;24244;51.950;5.902;2024-01-15T01:14:18;2.13;;;1.02;;
38465;SDS011;24244;51.950;5.902;2024-01-15T01:16:45;2.63;;;1.08;;
38465;SDS011;24244;51.950;5.902;2024-01-15T01:19:11;2.63;;;1.45;;
38465;SDS011;24244;51.950;5.902;2024-01-15T01:21:38;1.83;;;1.02;;
38465;SDS011;24244;51.950;5.902;2024-01-15T01:24:05;5.80;;;1.13;;
38465;SDS011;24244;51.950;5.902;2024-01-15T01:26:34;2.72;;;1.00;;
38465;SDS011;24244;51.950;5.902;2024-01-15T01:29:00;1.17;;;1.00;;
38465;SDS011;24244;51.950;5.902;2024-01-15T01:31:27;1.77;;;1.20;;
38465;SDS011;24244;51.950;5.902;2024-01-15T01:33:54;2.10;;;0.98;;
38465;SDS011;24244;51.950;5.902;2024-01-15T01:36:21;1.35;;;0.90;;
38465;SDS011;24244;51.950;5.902;2024-01-15T01:38:48;4.35;;;1.50;;
38465;SDS011;24244;51.950;5.902;2024-01-15T01:41:15;1.70;;;1.08;;
38465;SDS011;24244;51.950;5.902;2024-01-15T01:43:43;1.77;;;1.15;;
38465;SDS011;24244;51.950;5.902;2024-01-15T01:46:10;1.45;;;1.02;;
38465;SDS011;24244;51.950;5.902;2024-01-15T01:48:38;4.00;;;0.95;;
38465;SDS011;24244;51.950;5.902;2024-01-15T01:51:05;1.98;;;0.90;;
38465;SDS011;24244;51.950;5.902;2024-01-15T01:53:34;1.60;;;1.08;;
38465;SDS011;24244;51.950;5.902;2024-01-15T01:56:04;2.25;;;1.20;;
38465;SDS011;24244;51.950;5.902;2024-01-15T01:58:32;1.75;;;1.30;;
38465;SDS011;24244;51.950;5.902;2024-01-15T02:01:01;2.28;;;1.38;;
38465;SDS011;24244;51.950;5.902;2024-01-15T02:03:28;1.23;;;1.08;;
38465;SDS011;24244;51.950;5.902;2024-01-15T02:05:57;2.95;;;1.30;;
38465;SDS011;24244;51.950;5.902;2024-01-15T02:08:25;2.05;;;1.35;;
38465;SDS011;24244;51.950;5.902;2024-01-15T02:10:53;4.10;;;1.15;;
38465;SDS011;24244;51.950;5.902;2024-01-15T02:13:20;3.55;;;1.00;;
38465;SDS011;24244;51.950;5.902;2024-01-15T02:15:47;7.13;;;1.20;;
38465;SDS011;24244;51.950;5.902;2024-01-15T02:18:15;1.98;;;0.90;;
38465;SDS011;24244;51.950;5.902;2024-01-15T02:20:42;3.42;;;1.15;;
38465;SDS011;24244;51.950;5.902;2024-01-15T02:23:12;3.22;;;1.20;;
38465;SDS011;24244;51.950;5.902;2024-01-15T02:25:40;2.28;;;1.02;;
38465;SDS011;24244;51.950;5.902;2024-01-15T02:28:08;2.15;;;1.20;;
38465;SDS011;24244;51.950;5.902;2024-01-15T02:30:37;3.83;;;1.30;;
38465;SDS011;24244;51.950;5.902;2024-01-15T02:33:06;1.33;;;1.13;;
38465;SDS011;24244;51.950;5.902;2024-01-15T02:35:33;2.55;;;1.00;;
38465;SDS011;24244;51.950;5.902;2024-01-15T02:38:03;1.92;;;1.45;;
38465;SDS011;24244;51.950;5.902;2024-01-15T02:40:31;2.35;;;1.15;;
38465;SDS011;24244;51.950;5.902;2024-01-15T02:42:58;2.70;;;1.13;;
38465;SDS011;24244;51.950;5.902;2024-01-15T02:45:27;2.88;;;1.40;;
38465;SDS011;24244;51.950;5.902;2024-01-15T02:47:54;5.32;;;1.05;;
38465;SDS011;24244;51.950;5.902;2024-01-15T02:50:21;2.50;;;1.30;;
38465;SDS011;24244;51.950;5.902;2024-01-15T02:52:48;2.83;;;1.90;;
38465;SDS011;24244;51.950;5.902;2024-01-15T02:55:15;3.38;;;1.15;;
38465;SDS011;24244;51.950;5.902;2024-01-15T02:57:43;4.15;;;1.38;;
38465;SDS011;24244;51.950;5.902;2024-01-15T03:00:11;1.92;;;1.05;;
38465;SDS011;24244;51.950;5.902;2024-01-15T03:02:39;3.33;;;1.10;;
38465;SDS011;24244;51.950;5.902;2024-01-15T03:07:37;3.22;;;0.90;;
38465;SDS011;24244;51.950;5.902;2024-01-15T03:10:05;2.08;;;1.63;;
38465;SDS011;24244;51.950;5.902;2024-01-15T03:12:32;3.53;;;1.67;;
38465;SDS011;24244;51.950;5.902;2024-01-15T03:15:01;3.38;;;1.52;;
38465;SDS011;24244;51.950;5.902;2024-01-15T03:17:28;2.60;;;1.13;;
38465;SDS011;24244;51.950;5.902;2024-01-15T03:19:55;2.53;;;1.00;;
38465;SDS011;24244;51.950;5.902;2024-01-15T03:22:22;5.53;;;1.10;;
38465;SDS011;24244;51.950;5.902;2024-01-15T03:24:48;3.45;;;1.10;;
38465;SDS011;24244;51.950;5.902;2024-01-15T03:27:16;4.82;;;0.80;;
38465;SDS011;24244;51.950;5.902;2024-01-15T03:29:42;1.88;;;0.88;;
38465;SDS011;24244;51.950;5.902;2024-01-15T03:32:11;1.65;;;1.55;;
38465;SDS011;24244;51.950;5.902;2024-01-15T03:34:37;3.40;;;1.52;;
38465;SDS011;24244;51.950;5.902;2024-01-15T03:37:05;3.53;;;1.20;;
38465;SDS011;24244;51.950;5.902;2024-01-15T03:39:32;4.07;;;1.00;;
38465;SDS011;24244;51.950;5.902;2024-01-15T03:41:59;2.88;;;1.00;;
38465;SDS011;24244;51.950;5.902;2024-01-15T03:44:26;4.50;;;1.30;;
38465;SDS011;24244;51.950;5.902;2024-01-15T03:46:52;2.72;;;1.17;;
38465;SDS011;24244;51.950;5.902;2024-01-15T03:49:21;2.65;;;1.02;;
38465;SDS011;24244;51.950;5.902;2024-01-15T03:51:47;2.78;;;0.60;;
38465;SDS011;24244;51.950;5.902;2024-01-15T03:54:14;3.90;;;0.90;;
38465;SDS011;24244;51.950;5.902;2024-01-15T03:56:45;5.45;;;1.35;;
38465;SDS011;24244;51.950;5.902;2024-01-15T03:59:12;2.38;;;0.90;;
38465;SDS011;24244;51.950;5.902;2024-01-15T04:01:39;1.13;;;1.00;;
38465;SDS011;24244;51.950;5.902;2024-01-15T04:04:06;1.33;;;0.98;;
38465;SDS011;24244;51.950;5.902;2024-01-15T04:06:34;1.88;;;0.50;;
38465;SDS011;24244;51.950;5.902;2024-01-15T04:09:01;2.38;;;1.13;;
38465;SDS011;24244;51.950;5.902;2024-01-15T04:11:29;2.83;;;1.25;;
38465;SDS011;24244;51.950;5.902;2024-01-15T04:13:56;6.40;;;1.20;;
38465;SDS011;24244;51.950;5.902;2024-01-15T04:16:23;1.73;;;1.15;;
38465;SDS011;24244;51.950;5.902;2024-01-15T04:18:50;1.00;;;0.50;;
38465;SDS011;24244;51.950;5.902;2024-01-15T04:21:17;5.85;;;1.98;;
38465;SDS011;24244;51.950;5.902;2024-01-15T04:23:45;1.90;;;1.15;;
38465;SDS011;24244;51.950;5.902;2024-01-15T04:26:12;1.70;;;1.08;;
38465;SDS011;24244;51.950;5.902;2024-01-15T04:28:39;1.88;;;1.30;;
38465;SDS011;24244;51.950;5.902;2024-01-15T04:31:05;1.42;;;1.33;;
38465;SDS011;24244;51.950;5.902;2024-01-15T04:33:32;2.22;;;0.98;;
38465;SDS011;24244;51.950;5.902;2024-01-15T04:36:01;1.17;;;0.90;;
38465;SDS011;24244;51.950;5.902;2024-01-15T04:38:28;3.50;;;1.08;;
38465;SDS011;24244;51.950;5.902;2024-01-15T04:40:56;5.45;;;1.33;;
38465;SDS011;24244;51.950;5.902;2024-01-15T04:43:24;1.80;;;1.10;;
38465;SDS011;24244;51.950;5.902;2024-01-15T04:45:50;1.50;;;1.00;;
38465;SDS011;24244;51.950;5.902;2024-01-15T04:48:18;2.80;;;1.15;;
38465;SDS011;24244;51.950;5.902;2024-01-15T04:50:45;2.30;;;1.33;;
38465;SDS011;24244;51.950;5.902;2024-01-15T04:53:12;3.80;;;1.00;;
38465;SDS011;24244;51.950;5.902;2024-01-15T04:55:39;1.15;;;1.02;;
38465;SDS011;24244;51.950;5.902;2024-01-15T04:58:08;1.38;;;1.23;;
38465;SDS011;24244;51.950;5.902;2024-01-15T05:00:34;6.22;;;1.23;;
38465;SDS011;24244;51.950;5.902;2024-01-15T05:03:01;2.92;;;1.23;;
38465;SDS011;24244;51.950;5.902;2024-01-15T05:05:28;4.15;;;1.50;;
38465;SDS011;24244;51.950;5.902;2024-01-15T05:07:55;4.10;;;1.42;;
38465;SDS011;24244;51.950;5.902;2024-01-15T05:10:22;3.58;;;1.10;;
38465;SDS011;24244;51.950;5.902;2024-01-15T05:12:49;2.90;;;0.90;;
38465;SDS011;24244;51.950;5.902;2024-01-15T05:15:17;6.22;;;1.33;;
38465;SDS011;24244;51.950;5.902;2024-01-15T05:17:44;3.33;;;1.20;;
38465;SDS011;24244;51.950;5.902;2024-01-15T05:20:11;4.82;;;1.30;;
38465;SDS011;24244;51.950;5.902;2024-01-15T05:22:38;3.55;;;1.55;;
38465;SDS011;24244;51.950;5.902;2024-01-15T05:25:05;1.70;;;1.30;;
38465;SDS011;24244;51.950;5.902;2024-01-15T05:27:33;2.08;;;1.23;;
38465;SDS011;24244;51.950;5.902;2024-01-15T05:30:00;6.68;;;1.35;;
38465;SDS011;24244;51.950;5.902;2024-01-15T05:32:28;2.17;;;1.38;;
38465;SDS011;24244;51.950;5.902;2024-01-15T05:34:55;5.38;;;1.83;;
38465;SDS011;24244;51.950;5.902;2024-01-15T05:37:22;2.28;;;1.98;;
38465;SDS011;24244;51.950;5.902;2024-01-15T05:39:49;2.38;;;2.10;;
38465;SDS011;24244;51.950;5.902;2024-01-15T05:42:15;2.97;;;2.03;;
38465;SDS011;24244;51.950;5.902;2024-01-15T05:44:42;4.47;;;1.88;;
38465;SDS011;24244;51.950;5.902;2024-01-15T05:47:09;3.00;;;1.35;;
38465;SDS011;24244;51.950;5.902;2024-01-15T05:49:38;2.45;;;1.73;;
38465;SDS011;24244;51.950;5.902;2024-01-15T05:52:05;1.98;;;1.58;;
38465;SDS011;24244;51.950;5.902;2024-01-15T05:54:32;2.80;;;1.85;;
38465;SDS011;24244;51.950;5.902;2024-01-15T05:56:59;2.42;;;1.55;;
38465;SDS011;24244;51.950;5.902;2024-01-15T05:59:26;4.28;;;1.20;;
38465;SDS011;24244;51.950;5.902;2024-01-15T06:01:53;1.50;;;1.30;;
38465;SDS011;24244;51.950;5.902;2024-01-15T06:04:20;1.90;;;1.15;;
38465;SDS011;24244;51.950;5.902;2024-01-15T06:06:48;5.93;;;1.42;;
38465;SDS011;24244;51.950;5.902;2024-01-15T06:09:15;2.28;;;1.40;;
38465;SDS011;24244;51.950;5.902;2024-01-15T06:11:42;7.72;;;1.58;;
38465;SDS011;24244;51.950;5.902;2024-01-15T06:14:24;1.23;;;0.63;;
38465;SDS011;24244;51.950;5.902;2024-01-15T06:16:51;2.53;;;1.60;;
38465;SDS011;24244;51.950;5.902;2024-01-15T06:19:19;3.10;;;1.10;;
38465;SDS011;24244;51.950;5.902;2024-01-15T06:21:46;5.35;;;1.17;;
38465;SDS011;24244;51.950;5.902;2024-01-15T06:24:13;1.25;;;1.15;;
38465;SDS011;24244;51.950;5.902;2024-01-15T06:26:40;1.98;;;1.42;;
38465;SDS011;24244;51.950;5.902;2024-01-15T06:29:07;2.53;;;1.58;;
38465;SDS011;24244;51.950;5.902;2024-01-15T06:31:36;2.42;;;1.48;;
38465;SDS011;24244;51.950;5.902;2024-01-15T06:34:03;0.73;;;0.40;;
38465;SDS011;24244;51.950;5.902;2024-01-15T06:36:30;2.75;;;1.38;;
38465;SDS011;24244;51.950;5.902;2024-01-15T06:38:57;3.10;;;1.30;;
38465;SDS011;24244;51.950;5.902;2024-01-15T06:41:24;2.13;;;1.38;;
38465;SDS011;24244;51.950;5.902;2024-01-15T06:43:52;2.13;;;1.33;;
38465;SDS011;24244;51.950;5.902;2024-01-15T06:46:22;2.88;;;1.58;;
38465;SDS011;24244;51.950;5.902;2024-01-15T06:48:52;2.28;;;1.42;;
38465;SDS011;24244;51.950;5.902;2024-01-15T06:51:19;2.38;;;1.58;;
38465;SDS011;24244;51.950;5.902;2024-01-15T06:53:46;3.15;;;1.85;;
38465;SDS011;24244;51.950;5.902;2024-01-15T06:56:13;5.18;;;2.03;;
38465;SDS011;24244;51.950;5.902;2024-01-15T06:58:40;3.63;;;1.92;;
38465;SDS011;24244;51.950;5.902;2024-01-15T07:01:07;3.40;;;2.38;;
38465;SDS011;24244;51.950;5.902;2024-01-15T07:03:35;2.60;;;1.63;;
38465;SDS011;24244;51.950;5.902;2024-01-15T07:06:03;4.60;;;1.73;;
38465;SDS011;24244;51.950;5.902;2024-01-15T07:08:31;4.13;;;1.70;;
38465;SDS011;24244;51.950;5.902;2024-01-15T07:10:58;2.67;;;1.48;;
38465;SDS011;24244;51.950;5.902;2024-01-15T07:13:25;3.90;;;2.45;;
38465;SDS011;24244;51.950;5.902;2024-01-15T07:15:52;3.33;;;2.28;;
38465;SDS011;24244;51.950;5.902;2024-01-15T07:18:19;3.60;;;2.53;;
38465;SDS011;24244;51.950;5.902;2024-01-15T07:20:46;3.65;;;2.55;;
38465;SDS011;24244;51.950;5.902;2024-01-15T07:23:14;3.75;;;3.10;;
38465;SDS011;24244;51.950;5.902;2024-01-15T07:25:41;3.95;;;2.95;;
38465;SDS011;24244;51.950;5.902;2024-01-15T07:28:08;3.20;;;2.50;;
38465;SDS011;24244;51.950;5.902;2024-01-15T07:30:36;5.35;;;3.50;;
38465;SDS011;24244;51.950;5.902;2024-01-15T07:33:05;4.75;;;3.15;;
38465;SDS011;24244;51.950;5.902;2024-01-15T07:35:32;5.45;;;3.50;;
38465;SDS011;24244;51.950;5.902;2024-01-15T07:37:59;3.80;;;3.13;;
38465;SDS011;24244;51.950;5.902;2024-01-15T07:40:27;4.43;;;2.83;;
38465;SDS011;24244;51.950;5.902;2024-01-15T07:42:54;3.28;;;2.80;;
38465;SDS011;24244;51.950;5.902;2024-01-15T07:45:21;4.78;;;3.20;;
38465;SDS011;24244;51.950;5.902;2024-01-15T07:47:48;3.58;;;2.92;;
38465;SDS011;24244;51.950;5.902;2024-01-15T07:50:15;4.68;;;3.90;;
38465;SDS011;24244;51.950;5.902;2024-01-15T07:52:42;5.40;;;3.00;;
38465;SDS011;24244;51.950;5.902;2024-01-15T07:55:09;4.45;;;3.35;;
38465;SDS011;24244;51.950;5.902;2024-01-15T07:57:38;3.20;;;2.90;;
38465;SDS011;24244;51.950;5.902;2024-01-15T08:00:05;4.90;;;3.55;;
38465;SDS011;24244;51.950;5.902;2024-01-15T08:02:33;3.17;;;2.50;;
38465;SDS011;24244;51.950;5.902;2024-01-15T08:05:03;4.07;;;2.83;;
38465;SDS011;24244;51.950;5.902;2024-01-15T08:07:30;3.30;;;2.50;;
38465;SDS011;24244;51.950;5.902;2024-01-15T08:09:57;3.22;;;2.40;;
38465;SDS011;24244;51.950;5.902;2024-01-15T08:12:25;2.50;;;2.03;;
38465;SDS011;24244;51.950;5.902;2024-01-15T08:14:53;2.35;;;1.98;;
38465;SDS011;24244;51.950;5.902;2024-01-15T08:17:20;3.25;;;2.42;;
38465;SDS011;24244;51.950;5.902;2024-01-15T08:19:47;2.63;;;2.25;;
38465;SDS011;24244;51.950;5.902;2024-01-15T08:22:15;3.08;;;1.63;;
38465;SDS011;24244;51.950;5.902;2024-01-15T08:24:42;3.20;;;1.98;;
38465;SDS011;24244;51.950;5.902;2024-01-15T08:27:10;2.47;;;1.85;;
38465;SDS011;24244;51.950;5.902;2024-01-15T08:29:37;1.92;;;1.60;;
38465;SDS011;24244;51.950;5.902;2024-01-15T08:32:06;2.10;;;1.80;;
38465;SDS011;24244;51.950;5.902;2024-01-15T08:34:33;1.75;;;1.65;;
38465;SDS011;24244;51.950;5.902;2024-01-15T08:37:00;1.92;;;1.52;;
38465;SDS011;24244;51.950;5.902;2024-01-15T08:39:27;2.72;;;1.80;;
38465;SDS011;24244;51.950;5.902;2024-01-15T08:41:54;1.77;;;1.63;;
38465;SDS011;24244;51.950;5.902;2024-01-15T08:44:20;2.67;;;1.70;;
38465;SDS011;24244;51.950;5.902;2024-01-15T08:46:47;2.60;;;2.08;;
38465;SDS011;24244;51.950;5.902;2024-01-15T08:49:16;1.77;;;1.45;;
38465;SDS011;24244;51.950;5.902;2024-01-15T08:51:43;2.22;;;1.88;;
38465;SDS011;24244;51.950;5.902;2024-01-15T08:54:10;3.15;;;1.77;;
38465;SDS011;24244;51.950;5.902;2024-01-15T08:56:37;2.17;;;1.98;;
38465;SDS011;24244;51.950;5.902;2024-01-15T08:59:03;1.80;;;1.40;;
38465;SDS011;24244;51.950;5.902;2024-01-15T09:01:30;1.98;;;0.80;;
38465;SDS011;24244;51.950;5.902;2024-01-15T09:03:57;3.22;;;1.60;;
38465;SDS011;24244;51.950;5.902;2024-01-15T09:06:26;1.75;;;1.65;;
38465;SDS011;24244;51.950;5.902;2024-01-15T09:08:52;2.03;;;1.58;;
38465;SDS011;24244;51.950;5.902;2024-01-15T09:11:19;3.47;;;1.85;;
38465;SDS011;24244;51.950;5.902;2024-01-15T09:13:46;2.58;;;1.67;;
38465;SDS011;24244;51.950;5.902;2024-01-15T09:16:13;1.90;;;1.58;;
38465;SDS011;24244;51.950;5.902;2024-01-15T09:18:40;2.47;;;1.50;;
38465;SDS011;24244;51.950;5.902;2024-01-15T09:21:07;2.30;;;1.83;;
38465;SDS011;24244;51.950;5.902;2024-01-15T09:23:35;2.17;;;1.83;;
38465;SDS011;24244;51.950;5.902;2024-01-15T09:26:02;2.33;;;1.73;;
38465;SDS011;24244;51.950;5.902;2024-01-15T09:28:29;2.63;;;1.90;;
38465;SDS011;24244;51.950;5.902;2024-01-15T09:30:56;2.95;;;1.63;;
38465;SDS011;24244;51.950;5.902;2024-01-15T09:33:23;3.53;;;1.98;;
38465;SDS011;24244;51.950;5.902;2024-01-15T09:35:50;2.40;;;1.92;;
38465;SDS011;24244;51.950;5.902;2024-01-15T09:38:17;2.10;;;1.65;;
38465;SDS011;24244;51.950;5.902;2024-01-15T09:40:47;1.88;;;0.90;;
38465;SDS011;24244;51.950;5.902;2024-01-15T09:43:13;3.05;;;2.08;;
38465;SDS011;24244;51.950;5.902;2024-01-15T09:45:42;1.92;;;1.77;;
38465;SDS011;24244;51.950;5.902;2024-01-15T09:48:10;2.85;;;2.03;;
38465;SDS011;24244;51.950;5.902;2024-01-15T09:50:38;2.10;;;1.30;;
38465;SDS011;24244;51.950;5.902;2024-01-15T09:53:05;1.25;;;1.15;;
38465;SDS011;24244;51.950;5.902;2024-01-15T09:55:32;1.52;;;1.20;;
38465;SDS011;24244;51.950;5.902;2024-01-15T09:58:01;2.88;;;1.30;;
38465;SDS011;24244;51.950;5.902;2024-01-15T10:00:29;3.10;;;1.40;;
38465;SDS011;24244;51.950;5.902;2024-01-15T10:02:59;1.63;;;1.25;;
38465;SDS011;24244;51.950;5.902;2024-01-15T10:05:29;1.25;;;1.15;;
38465;SDS011;24244;51.950;5.902;2024-01-15T10:07:56;2.30;;;1.52;;
38465;SDS011;24244;51.950;5.902;2024-01-15T10:10:24;1.40;;;1.30;;
38465;SDS011;24244;51.950;5.902;2024-01-15T10:12:51;1.48;;;1.08;;
38465;SDS011;24244;51.950;5.902;2024-01-15T10:15:21;1.20;;;1.10;;
38465;SDS011;24244;51.950;5.902;2024-01-15T10:17:50;1.45;;;1.08;;
38465;SDS011;24244;51.950;5.902;2024-01-15T10:20:17;1.30;;;0.98;;
38465;SDS011;24244;51.950;5.902;2024-01-15T10:22:44;3.10;;;1.10;;
38465;SDS011;24244;51.950;5.902;2024-01-15T10:25:13;2.00;;;1.67;;
38465;SDS011;24244;51.950;5.902;2024-01-15T10:27:41;1.75;;;1.40;;
38465;SDS011;24244;51.950;5.902;2024-01-15T10:30:10;1.50;;;1.40;;
38465;SDS011;24244;51.950;5.902;2024-01-15T10:32:39;1.02;;;0.90;;
38465;SDS011;24244;51.950;5.902;2024-01-15T10:35:07;1.17;;;1.02;;
38465;SDS011;24244;51.950;5.902;2024-01-15T10:37:35;1.35;;;1.25;;
38465;SDS011;24244;51.950;5.902;2024-01-15T10:40:02;5.35;;;1.63;;
38465;SDS011;24244;51.950;5.902;2024-01-15T10:42:31;2.65;;;1.48;;
38465;SDS011;24244;51.950;5.902;2024-01-15T10:44:58;1.75;;;1.08;;
38465;SDS011;24244;51.950;5.902;2024-01-15T10:47:26;3.38;;;1.40;;
38465;SDS011;24244;51.950;5.902;2024-01-15T10:49:54;3.35;;;1.80;;
38465;SDS011;24244;51.950;5.902;2024-01-15T10:52:24;4.72;;;1.73;;
38465;SDS011;24244;51.950;5.902;2024-01-15T10:54:52;2.92;;;1.88;;
38465;SDS011;24244;51.950;5.902;2024-01-15T10:57:20;3.55;;;2.40;;
38465;SDS011;24244;51.950;5.902;2024-01-15T10:59:48;3.97;;;2.42;;
38465;SDS011;24244;51.950;5.902;2024-01-15T11:02:16;4.82;;;2.63;;
38465;SDS011;24244;51.950;5.902;2024-01-15T11:04:43;3.20;;;2.30;;
38465;SDS011;24244;51.950;5.902;2024-01-15T11:07:12;3.55;;;2.25;;
38465;SDS011;24244;51.950;5.902;2024-01-15T11:09:40;2.60;;;1.98;;
38465;SDS011;24244;51.950;5.902;2024-01-15T11:12:10;5.65;;;2.53;;
38465;SDS011;24244;51.950;5.902;2024-01-15T11:14:40;3.10;;;1.92;;
38465;SDS011;24244;51.950;5.902;2024-01-15T11:17:11;2.83;;;1.98;;
38465;SDS011;24244;51.950;5.902;2024-01-15T11:19:42;3.00;;;1.83;;
38465;SDS011;24244;51.950;5.902;2024-01-15T11:25:14;2.95;;;1.88;;
38465;SDS011;24244;51.950;5.902;2024-01-15T11:27:42;2.30;;;1.70;;
38465;SDS011;24244;51.950;5.902;2024-01-15T11:30:11;2.50;;;1.50;;
38465;SDS011;24244;51.950;5.902;2024-01-15T11:32:40;2.50;;;1.48;;
38465;SDS011;24244;51.950;5.902;2024-01-15T11:35:12;2.42;;;1.60;;
38465;SDS011;24244;51.950;5.902;2024-01-15T11:37:58;3.63;;;1.70;;
38465;SDS011;24244;51.950;5.902;2024-01-15T11:40:38;2.60;;;1.48;;
38465;SDS011;24244;51.950;5.902;2024-01-15T11:43:06;3.05;;;1.50;;
38465;SDS011;24244;51.950;5.902;2024-01-15T11:45:33;4.18;;;1.50;;
38465;SDS011;24244;51.950;5.902;2024-01-15T11:48:09;2.10;;;0.70;;
38465;SDS011;24244;51.950;5.902;2024-01-15T11:50:42;3.45;;;1.42;;
38465;SDS011;24244;51.950;5.902;2024-01-15T11:53:20;3.63;;;0.90;;
38465;SDS011;24244;51.950;5.902;2024-01-15T11:55:53;3.38;;;1.25;;
38465;SDS011;24244;51.950;5.902;2024-01-15T11:58:24;1.98;;;1.02;;
38465;SDS011;24244;51.950;5.902;2024-01-15T12:00:51;2.53;;;1.10;;
38465;SDS011;24244;51.950;5.902;2024-01-15T12:03:20;2.40;;;1.27;;
38465;SDS011;24244;51.950;5.902;2024-01-15T12:05:47;2.95;;;1.02;;
38465;SDS011;24244;51.950;5.902;2024-01-15T12:08:14;1.50;;;1.20;;
38465;SDS011;24244;51.950;5.902;2024-01-15T12:13:15;1.50;;;1.02;;
38465;SDS011;24244;51.950;5.902;2024-01-15T12:15:44;1.15;;;1.05;;
38465;SDS011;24244;51.950;5.902;2024-01-15T12:18:13;2.35;;;1.20;;
38465;SDS011;24244;51.950;5.902;2024-01-15T12:20:42;3.78;;;1.50;;
38465;SDS011;24244;51.950;5.902;2024-01-15T12:23:10;2.47;;;1.40;;
38465;SDS011;24244;51.950;5.902;2024-01-15T12:25:38;3.15;;;1.25;;
38465;SDS011;24244;51.950;5.902;2024-01-15T12:28:07;3.38;;;1.10;;
38465;SDS011;24244;51.950;5.902;2024-01-15T12:30:34;2.05;;;1.20;;
38465;SDS011;24244;51.950;5.902;2024-01-15T12:33:02;2.53;;;1.48;;
38465;SDS011;24244;51.950;5.902;2024-01-15T12:35:33;2.95;;;1.10;;
38465;SDS011;24244;51.950;5.902;2024-01-15T12:38:00;1.60;;;1.17;;
38465;SDS011;24244;51.950;5.902;2024-01-15T12:40:30;1.33;;;0.90;;
38465;SDS011;24244;51.950;5.902;2024-01-15T12:42:58;3.92;;;1.30;;
38465;SDS011;24244;51.950;5.902;2024-01-15T12:45:27;2.47;;;0.40;;
38465;SDS011;24244;51.950;5.902;2024-01-15T12:47:54;3.25;;;1.05;;
38465;SDS011;24244;51.950;5.902;2024-01-15T12:50:25;2.90;;;0.93;;
38465;SDS011;24244;51.950;5.902;2024-01-15T12:52:53;2.53;;;1.23;;
38465;SDS011;24244;51.950;5.902;2024-01-15T12:55:20;3.30;;;1.10;;
38465;SDS011;24244;51.950;5.902;2024-01-15T12:57:47;1.08;;;0.93;;
38465;SDS011;24244;51.950;5.902;2024-01-15T13:00:14;1.10;;;1.00;;
38465;SDS011;24244;51.950;5.902;2024-01-15T13:02:43;1.77;;;0.40;;
38465;SDS011;24244;51.950;5.902;2024-01-15T13:05:10;1.00;;;0.85;;
38465;SDS011;24244;51.950;5.902;2024-01-15T13:07:40;2.85;;;1.23;;
38465;SDS011;24244;51.950;5.902;2024-01-15T13:10:08;2.55;;;1.00;;
38465;SDS011;24244;51.950;5.902;2024-01-15T13:12:36;2.30;;;0.90;;
38465;SDS011;24244;51.950;5.902;2024-01-15T13:15:04;1.27;;;0.98;;
38465;SDS011;24244;51.950;5.902;2024-01-15T13:17:31;3.53;;;1.10;;
38465;SDS011;24244;51.950;5.902;2024-01-15T13:20:00;1.23;;;0.30;;
38465;SDS011;24244;51.950;5.902;2024-01-15T13:22:27;2.67;;;0.85;;
38465;SDS011;24244;51.950;5.902;2024-01-15T13:24:59;1.85;;;0.75;;
38465;SDS011;24244;51.950;5.902;2024-01-15T13:27:26;1.73;;;0.75;;
38465;SDS011;24244;51.950;5.902;2024-01-15T13:29:54;1.80;;;0.82;;
38465;SDS011;24244;51.950;5.902;2024-01-15T13:32:22;0.38;;;0.20;;
38465;SDS011;24244;51.950;5.902;2024-01-15T13:34:54;2.25;;;1.20;;
38465;SDS011;24244;51.950;5.902;2024-01-15T13:37:23;1.20;;;0.25;;
38465;SDS011;24244;51.950;5.902;2024-01-15T13:42:21;1.33;;;0.90;;
38465;SDS011;24244;51.950;5.902;2024-01-15T13:44:50;1.50;;;0.85;;
38465;SDS011;24244;51.950;5.902;2024-01-15T13:47:18;1.77;;;0.93;;
38465;SDS011;24244;51.950;5.902;2024-01-15T13:49:45;2.03;;;1.00;;
38465;SDS011;24244;51.950;5.902;2024-01-15T13:52:12;2.00;;;1.10;;
38465;SDS011;24244;51.950;5.902;2024-01-15T13:54:41;2.45;;;0.98;;
38465;SDS011;24244;51.950;5.902;2024-01-15T13:57:16;2.65;;;1.42;;
38465;SDS011;24244;51.950;5.902;2024-01-15T13:59:43;0.68;;;0.20;;
38465;SDS011;24244;51.950;5.902;2024-01-15T14:02:10;1.35;;;0.70;;
38465;SDS011;24244;51.950;5.902;2024-01-15T14:04:38;0.98;;;0.90;;
38465;SDS011;24244;51.950;5.902;2024-01-15T14:07:05;2.10;;;0.95;;
38465;SDS011;24244;51.950;5.902;2024-01-15T14:09:32;3.22;;;1.25;;
38465;SDS011;24244;51.950;5.902;2024-01-15T14:12:01;2.17;;;0.90;;
38465;SDS011;24244;51.950;5.902;2024-01-15T14:14:29;4.25;;;1.30;;
38465;SDS011;24244;51.950;5.902;2024-01-15T14:16:55;1.92;;;1.10;;
38465;SDS011;24244;51.950;5.902;2024-01-15T14:19:23;1.83;;;0.90;;
38465;SDS011;24244;51.950;5.902;2024-01-15T14:21:50;2.75;;;1.15;;
38465;SDS011;24244;51.950;5.902;2024-01-15T14:24:17;2.50;;;1.02;;
38465;SDS011;24244;51.950;5.902;2024-01-15T14:26:45;2.63;;;0.90;;
38465;SDS011;24244;51.950;5.902;2024-01-15T14:29:13;2.25;;;0.98;;
38465;SDS011;24244;51.950;5.902;2024-01-15T14:31:40;3.55;;;1.08;;
38465;SDS011;24244;51.950;5.902;2024-01-15T14:34:07;3.63;;;1.10;;
38465;SDS011;24244;51.950;5.902;2024-01-15T14:36:34;4.35;;;1.05;;
38465;SDS011;24244;51.950;5.902;2024-01-15T14:39:01;2.65;;;1.23;;
38465;SDS011;24244;51.950;5.902;2024-01-15T14:41:29;2.58;;;0.98;;
38465;SDS011;24244;51.950;5.902;2024-01-15T14:43:56;3.40;;;1.42;;
38465;SDS011;24244;51.950;5.902;2024-01-15T14:46:25;2.92;;;1.08;;
38465;SDS011;24244;51.950;5.902;2024-01-15T14:48:53;1.83;;;1.02;;
38465;SDS011;24244;51.950;5.902;2024-01-15T14:51:20;2.50;;;1.25;;
38465;SDS011;24244;51.950;5.902;2024-01-15T14:53:47;1.40;;;1.15;;
38465;SDS011;24244;51.950;5.902;2024-01-15T14:56:14;1.92;;;1.38;;
38465;SDS011;24244;51.950;5.902;2024-01-15T14:58:44;2.85;;;1.13;;
38465;SDS011;24244;51.950;5.902;2024-01-15T15:01:10;1.13;;;1.02;;